Time;durP1;ratioP1;P1;durP2;ratioP2;P2;SDS_P1;SDS_P2;PMS_P1;PMS_P2;Temp;Humidity;BMP_temperature;BMP_pressure;BME280_temperature;BME280_humidity;BME280_pressure;Samples;Min_cycle;Max_cycle;Signal;HPM_P1;HPM_P2
2022/07/30 00:02:31;;;;;;;13.15;3.20;;;;;;;19.14;49.16;99971.16;10333826;28;20128;-83
2022/07/30 00:07:34;;;;;;;9.93;3.25;;;;;;;18.99;49.80;99962.00;10332884;28;20420;-84
2022/07/30 00:12:36;;;;;;;7.00;3.00;;;;;;;19.03;49.38;99956.28;10333097;28;20065;-82
2022/07/30 00:17:38;;;;;;;6.78;2.97;;;;;;;19.03;49.50;99950.97;10349097;28;20065;-83
2022/07/30 00:22:40;;;;;;;11.20;3.30;;;;;;;18.63;50.10;99948.53;10332146;28;20057;-83
2022/07/30 00:27:43;;;;;;;6.03;3.20;;;;;;;18.52;50.03;99947.88;10330787;28;20423;-83
2022/07/30 00:32:44;;;;;;;10.75;3.17;;;;;;;18.47;50.13;99931.56;10331191;28;20050;-83
2022/07/30 00:37:46;;;;;;;7.10;3.17;;;;;;;18.30;50.98;99929.66;10332045;28;20061;-83
2022/07/30 00:42:48;;;;;;;7.10;3.00;;;;;;;18.35;51.28;99941.47;10330870;28;20050;-83
2022/07/30 00:47:50;;;;;;;7.72;3.42;;;;;;;18.45;51.69;99939.66;10324557;28;20848;-83
2022/07/30 00:52:52;;;;;;;6.32;3.50;;;;;;;18.39;51.66;99934.09;10332577;28;20052;-83
2022/07/30 00:57:54;;;;;;;7.72;3.40;;;;;;;18.39;51.70;99932.28;10334312;28;20566;-83
2022/07/30 01:02:55;;;;;;;8.95;4.00;;;;;;;18.12;52.38;99926.81;10336531;28;20065;-83
2022/07/30 01:07:58;;;;;;;7.05;3.30;;;;;;;18.11;52.46;99934.91;10330463;28;20554;-84
2022/07/30 01:13:00;;;;;;;6.88;3.67;;;;;;;18.05;52.40;99928.38;10330679;28;20062;-83
2022/07/30 01:18:05;;;;;;;7.97;3.20;;;;;;;17.93;52.78;99941.88;10332612;28;21069;-84
2022/07/30 01:23:17;;;;;;;8.50;3.30;;;;;;;17.90;52.87;99936.84;10329773;28;20050;-83
2022/07/30 01:28:23;;;;;;;6.68;3.50;;;;;;;17.76;52.75;99941.56;10331937;28;20092;-83
2022/07/30 01:33:26;;;;;;;6.20;3.53;;;;;;;17.71;52.79;99946.41;10333842;28;20050;-83
2022/07/30 01:38:30;;;;;;;5.60;3.25;;;;;;;17.71;52.51;99949.06;10337387;28;20046;-83
2022/07/30 01:43:36;;;;;;;7.20;3.22;;;;;;;17.67;52.58;99955.59;10352867;28;20128;-83
2022/07/30 01:48:41;;;;;;;5.72;3.05;;;;;;;17.69;52.91;99948.34;10353912;28;20405;-84
2022/07/30 01:53:45;;;;;;;12.00;3.33;;;;;;;17.69;52.76;99958.94;10338313;28;20173;-83
2022/07/30 01:58:48;;;;;;;6.40;3.33;;;;;;;17.69;52.73;99958.09;10352816;28;20419;-83
2022/07/30 02:03:51;;;;;;;6.72;3.33;;;;;;;17.69;52.48;99966.03;10343056;28;20107;-83
2022/07/30 02:08:56;;;;;;;6.88;3.40;;;;;;;17.72;52.67;99966.63;10345742;28;20124;-82
2022/07/30 02:13:58;;;;;;;8.95;3.17;;;;;;;17.69;52.69;99966.88;10359433;28;20054;-83
2022/07/30 02:19:08;;;;;;;8.80;3.38;;;;;;;17.68;52.61;99957.28;10345751;28;20184;-83
2022/07/30 02:24:21;;;;;;;12.38;3.55;;;;;;;17.57;52.28;99954.75;10356724;28;20765;-82
2022/07/30 02:29:24;;;;;;;7.80;3.10;;;;;;;17.30;52.88;99965.03;10353268;28;20065;-83
2022/07/30 02:34:28;;;;;;;9.27;3.75;;;;;;;17.28;52.95;99964.34;10342758;28;20690;-83
2022/07/30 02:39:55;;;;;;;6.72;3.47;;;;;;;17.21;53.14;99963.22;10356874;28;20061;-82
2022/07/30 02:45:05;;;;;;;6.28;3.72;;;;;;;17.28;53.09;99966.16;10355266;28;20042;-83
2022/07/30 02:50:08;;;;;;;7.47;3.40;;;;;;;17.26;53.21;99968.09;10358811;28;20077;-82
2022/07/30 02:55:12;;;;;;;8.15;3.40;;;;;;;17.08;53.71;99969.69;10357171;28;20046;-83
2022/07/30 03:00:14;;;;;;;7.13;3.85;;;;;;;17.01;54.07;99964.09;10340060;28;20110;-83
2022/07/30 03:05:16;;;;;;;9.70;3.97;;;;;;;16.51;55.05;99970.19;10336608;28;20432;-83
2022/07/30 03:10:18;;;;;;;7.28;4.03;;;;;;;16.49;54.95;99972.94;10328967;28;20101;-77
2022/07/30 03:15:20;;;;;;;9.27;3.88;;;;;;;16.45;55.10;99963.59;10332079;28;20061;-77
2022/07/30 03:20:27;;;;;;;7.47;3.97;;;;;;;16.12;56.24;99969.84;10332529;28;20115;-76
2022/07/30 03:25:30;;;;;;;8.23;3.80;;;;;;;16.16;55.83;99973.06;10331102;28;20050;-76
2022/07/30 03:30:33;;;;;;;8.70;4.15;;;;;;;16.23;55.39;99974.22;10332244;28;20054;-75
2022/07/30 03:35:36;;;;;;;7.22;3.97;;;;;;;16.14;55.54;99978.47;10334230;28;20133;-75
2022/07/30 03:40:40;;;;;;;8.88;4.25;;;;;;;15.98;56.25;99983.31;10328099;28;20137;-75
2022/07/30 03:45:44;;;;;;;6.40;3.50;;;;;;;16.08;56.12;99989.50;10333317;28;20054;-75
2022/07/30 03:50:47;;;;;;;6.35;3.58;;;;;;;16.05;56.17;99995.06;10331387;28;20484;-75
2022/07/30 03:55:50;;;;;;;8.13;4.00;;;;;;;15.99;56.22;100000.81;10329884;28;20053;-75
2022/07/30 04:00:52;;;;;;;5.60;3.60;;;;;;;15.93;56.67;100006.59;10342739;28;20066;-75
2022/07/30 04:05:54;;;;;;;7.75;4.22;;;;;;;15.90;56.90;100001.56;10331987;28;20082;-75
2022/07/30 04:10:56;;;;;;;7.85;4.20;;;;;;;15.76;56.90;100012.38;10342727;28;20046;-75
2022/07/30 04:16:04;;;;;;;8.50;4.18;;;;;;;15.58;57.57;100023.53;10329337;28;20054;-75
2022/07/30 04:21:28;;;;;;;9.35;3.80;;;;;;;15.77;57.26;100021.97;10327331;28;20079;-75
2022/07/30 04:26:33;;;;;;;8.38;4.30;;;;;;;15.84;57.00;100031.06;10333865;28;20057;-75
2022/07/30 04:31:35;;;;;;;6.53;3.97;;;;;;;16.06;56.33;100032.84;10328671;28;20058;-75
2022/07/30 04:36:42;;;;;;;6.90;4.07;;;;;;;16.22;56.00;100044.63;10330760;28;20096;-75
2022/07/30 04:41:43;;;;;;;6.80;3.90;;;;;;;17.66;53.49;100045.66;10327595;28;20061;-75
2022/07/30 04:46:50;;;;;;;6.28;3.55;;;;;;;19.68;48.70;100039.38;10329061;28;20151;-76
2022/07/30 04:51:53;;;;;;;8.75;3.90;;;;;;;21.56;44.64;100038.09;10328277;28;20050;-75
2022/07/30 04:56:55;;;;;;;7.20;3.42;;;;;;;22.93;41.65;100027.78;10330539;28;20049;-76
2022/07/30 05:01:59;;;;;;;5.97;3.47;;;;;;;23.98;39.28;100029.16;10331025;28;20144;-76
2022/07/30 05:07:02;;;;;;;10.05;3.47;;;;;;;24.50;38.09;100032.06;10328484;28;20499;-76
2022/07/30 05:12:05;;;;;;;7.38;3.25;;;;;;;25.20;36.88;100029.97;10355213;28;20440;-76
2022/07/30 05:17:07;;;;;;;8.23;3.45;;;;;;;25.25;36.26;100034.75;10341295;28;20056;-76
2022/07/30 05:22:09;;;;;;;6.53;3.38;;;;;;;24.97;36.00;100032.69;10338643;28;20559;-76
2022/07/30 05:27:11;;;;;;;10.13;4.07;;;;;;;23.27;39.07;100047.06;10337647;28;20614;-76
2022/07/30 05:32:13;;;;;;;6.25;3.50;;;;;;;21.77;41.90;100051.84;10355255;28;20061;-76
2022/07/30 05:37:15;;;;;;;9.68;3.55;;;;;;;20.96;43.65;100051.38;10341160;28;20056;-76
2022/07/30 05:42:16;;;;;;;7.05;4.10;;;;;;;20.45;44.91;100050.38;10337555;28;20058;-76
2022/07/30 05:47:19;;;;;;;8.15;3.80;;;;;;;20.23;45.22;100055.13;10336367;28;20085;-76
2022/07/30 05:52:23;;;;;;;7.13;3.90;;;;;;;20.17;45.70;100050.41;10333301;28;20042;-76
2022/07/30 05:57:25;;;;;;;6.78;3.65;;;;;;;20.03;46.39;100063.38;10353522;28;20054;-76
2022/07/30 06:02:27;;;;;;;7.82;4.10;;;;;;;20.21;46.15;100057.09;10357119;28;20576;-76
2022/07/30 06:07:28;;;;;;;9.00;4.07;;;;;;;20.23;45.99;100060.44;10334696;28;20081;-76
2022/07/30 06:12:30;;;;;;;7.65;3.70;;;;;;;20.33;46.38;100056.91;10336611;28;20058;-76
2022/07/30 06:17:32;;;;;;;10.30;4.07;;;;;;;20.62;46.01;100076.16;10338819;28;20050;-76
2022/07/30 06:22:42;;;;;;;8.50;4.30;;;;;;;20.46;45.65;100071.47;10333685;28;20100;-76
2022/07/30 06:27:44;;;;;;;8.20;4.70;;;;;;;20.73;45.10;100070.59;10352091;28;20108;-76
2022/07/30 06:32:46;;;;;;;9.68;4.53;;;;;;;20.82;45.21;100073.19;10336458;28;20057;-76
2022/07/30 06:37:49;;;;;;;9.35;4.78;;;;;;;20.91;44.87;100072.25;10338039;28;20070;-76
2022/07/30 06:43:08;;;;;;;10.23;5.97;;;;;;;21.07;44.36;100075.03;10337117;28;20058;-76
2022/07/30 06:48:09;;;;;;;10.80;5.30;;;;;;;21.45;43.67;100078.31;10351735;28;20078;-77
2022/07/30 06:53:11;;;;;;;9.50;5.03;;;;;;;21.57;43.56;100085.03;10336326;28;20085;-76
2022/07/30 06:58:13;;;;;;;12.30;6.13;;;;;;;21.80;43.38;100076.31;10337836;28;20117;-77
2022/07/30 07:03:26;;;;;;;9.43;5.65;;;;;;;21.92;42.80;100082.22;10335662;28;20050;-77
2022/07/30 07:08:40;;;;;;;11.75;5.28;;;;;;;22.20;42.33;100081.00;10349453;28;20531;-76
2022/07/30 07:13:42;;;;;;;13.55;5.88;;;;;;;22.37;41.92;100074.72;10333686;28;20140;-76
2022/07/30 07:18:44;;;;;;;9.85;5.70;;;;;;;22.50;41.90;100079.56;10336192;28;20086;-77
2022/07/30 07:23:48;;;;;;;9.23;5.90;;;;;;;22.58;41.42;100072.44;10335982;28;20058;-76
2022/07/30 07:28:50;;;;;;;10.68;5.65;;;;;;;22.78;40.95;100077.47;10331733;28;20055;-77
2022/07/30 07:33:53;;;;;;;12.45;5.47;;;;;;;22.96;40.78;100072.81;10332942;28;20838;-76
2022/07/30 07:38:55;;;;;;;10.85;5.47;;;;;;;23.51;39.80;100080.94;10336911;28;20065;-76
2022/07/30 07:43:56;;;;;;;9.38;5.15;;;;;;;25.01;37.40;100066.09;10335127;28;20071;-77
2022/07/30 07:48:58;;;;;;;11.40;5.38;;;;;;;26.21;35.12;100062.28;10332652;28;20065;-78
2022/07/30 07:54:00;;;;;;;9.65;5.00;;;;;;;27.02;33.65;100060.00;10333055;28;20053;-77
2022/07/30 07:59:22;;;;;;;11.05;5.20;;;;;;;28.08;31.86;100054.28;10327826;28;20057;-78
2022/07/30 08:04:28;;;;;;;10.75;5.10;;;;;;;28.50;30.62;100048.66;10327834;28;20054;-78
2022/07/30 08:09:29;;;;;;;10.27;4.70;;;;;;;28.57;30.68;100054.03;10348973;28;20057;-78
2022/07/30 08:14:45;;;;;;;6.40;4.75;;;;;;;28.77;30.02;100046.81;10331168;28;20050;-78
2022/07/30 08:19:48;;;;;;;15.43;5.13;;;;;;;28.70;29.89;100041.44;10333459;28;20109;-78
2022/07/30 08:24:50;;;;;;;12.50;5.47;;;;;;;28.44;30.18;100054.84;10331632;28;20050;-78
2022/07/30 08:29:51;;;;;;;11.13;5.32;;;;;;;28.75;29.64;100055.09;10333071;28;20054;-78
2022/07/30 08:34:53;;;;;;;20.75;6.90;;;;;;;28.96;29.45;100057.66;10334833;28;20445;-80
2022/07/30 08:39:55;;;;;;;11.63;4.55;;;;;;;29.36;28.89;100054.94;10345975;28;20148;-79
2022/07/30 08:44:56;;;;;;;15.40;6.22;;;;;;;29.44;28.50;100054.72;10329064;28;20054;-78
2022/07/30 08:50:03;;;;;;;12.05;6.53;;;;;;;29.68;28.01;100059.44;10327095;28;20151;-79
2022/07/30 08:55:06;;;;;;;11.57;5.63;;;;;;;29.96;27.19;100061.84;10330636;28;20073;-79
2022/07/30 09:00:08;;;;;;;11.77;4.65;;;;;;;30.10;27.22;100060.75;10328498;28;20500;-79
2022/07/30 09:05:11;;;;;;;11.75;5.55;;;;;;;30.27;26.83;100051.13;10327188;28;20104;-79
2022/07/30 09:10:13;;;;;;;12.35;4.65;;;;;;;29.99;26.67;100053.34;10343854;28;20152;-79
2022/07/30 09:15:18;;;;;;;13.57;4.70;;;;;;;29.81;27.10;100056.69;10328072;28;20582;-78
2022/07/30 09:20:24;;;;;;;8.38;4.38;;;;;;;29.82;27.17;100055.66;10332376;28;20067;-78
2022/07/30 09:25:35;;;;;;;11.45;5.00;;;;;;;29.95;26.30;100050.22;10330476;28;20050;-79
2022/07/30 09:30:49;;;;;;;9.63;3.95;;;;;;;30.20;25.75;100064.63;10332229;28;20121;-78
2022/07/30 09:35:55;;;;;;;9.23;4.57;;;;;;;30.20;25.90;100048.44;10344706;28;20507;-79
2022/07/30 09:40:57;;;;;;;9.40;4.78;;;;;;;30.33;25.94;100058.34;10329325;28;20094;-79
2022/07/30 09:46:05;;;;;;;;;;;;;;;28.22;28.68;100050.63;10327910;28;20175;-79
2022/07/30 09:51:07;;;;;;;14.30;3.85;;;;;;;29.17;27.90;100045.81;10329490;28;19978;-79
2022/07/30 09:56:27;;;;;;;11.55;3.95;;;;;;;30.12;26.08;100056.81;10335818;28;20046;-79
2022/07/30 10:01:53;;;;;;;11.43;4.45;;;;;;;30.22;25.82;100061.72;10338845;28;20192;-79
2022/07/30 10:07:01;;;;;;;8.88;3.47;;;;;;;28.82;27.32;100058.63;10338908;28;20140;-79
2022/07/30 10:12:05;;;;;;;10.25;3.60;;;;;;;28.11;28.40;100054.75;10350438;28;20061;-79
2022/07/30 10:17:12;;;;;;;7.90;3.70;;;;;;;27.76;28.44;100055.81;10352123;28;20557;-78
2022/07/30 10:22:14;;;;;;;9.20;3.92;;;;;;;28.33;28.06;100054.63;10338636;28;20443;-79
2022/07/30 10:27:18;;;;;;;11.50;4.05;;;;;;;28.08;28.76;100048.91;10354027;28;20070;-79
2022/07/30 10:32:20;;;;;;;8.85;3.90;;;;;;;28.22;28.51;100062.22;10345800;28;20503;-79
2022/07/30 10:37:33;;;;;;;13.15;4.90;;;;;;;28.31;28.62;100051.28;10334361;28;20821;-79
2022/07/30 10:43:12;;;;;;;8.63;3.50;;;;;;;28.70;28.17;100043.31;10351979;28;20053;-78
2022/07/30 10:48:18;;;;;;;9.10;3.17;;;;;;;28.63;27.93;100050.53;10339126;28;20061;-78
2022/07/30 10:53:32;;;;;;;6.10;3.33;;;;;;;28.45;27.93;100050.28;10341042;28;20081;-79
2022/07/30 10:59:12;;;;;;;8.73;3.05;;;;;;;28.28;27.88;100039.88;10349658;28;20054;-79
2022/07/30 11:04:23;;;;;;;11.40;3.20;;;;;;;28.21;27.75;100035.53;10301730;28;20712;-79
2022/07/30 11:09:41;;;;;;;9.52;3.05;;;;;;;28.35;27.26;100037.25;10268251;28;20054;-79
2022/07/30 11:14:46;;;;;;;6.40;2.70;;;;;;;28.43;27.75;100053.19;10255465;28;20051;-79
2022/07/30 11:20:09;;;;;;;5.75;2.50;;;;;;;28.42;26.88;100035.38;10271832;28;20062;-79
2022/07/30 11:25:21;;;;;;;8.25;2.90;;;;;;;28.22;26.88;100035.31;10254231;28;20547;-78
2022/07/30 11:30:29;;;;;;;6.30;2.70;;;;;;;28.24;27.71;100035.94;10252118;28;20117;-79
2022/07/30 11:35:33;;;;;;;5.55;2.40;;;;;;;28.03;28.18;100036.06;10254543;28;20055;-79
2022/07/30 11:40:43;;;;;;;5.57;2.50;;;;;;;27.87;28.30;100030.25;10251940;28;20047;-79
2022/07/30 11:45:49;;;;;;;8.52;2.83;;;;;;;28.01;27.42;100034.63;10267690;28;20062;-79
2022/07/30 11:50:54;;;;;;;7.18;2.55;;;;;;;28.16;27.40;100030.75;10253075;28;20110;-79
2022/07/30 11:55:58;;;;;;;6.50;2.40;;;;;;;28.58;26.71;100032.34;10254323;28;20063;-79
2022/07/30 12:01:14;;;;;;;6.13;2.72;;;;;;;28.43;27.88;100026.28;10270505;28;20058;-79
2022/07/30 12:06:20;;;;;;;7.50;2.65;;;;;;;28.44;27.19;100030.63;10333247;28;20143;-80
2022/07/30 12:11:21;;;;;;;8.80;2.78;;;;;;;28.25;27.36;100036.78;10334334;28;20139;-79
2022/07/30 12:16:24;;;;;;;7.07;2.60;;;;;;;28.08;27.54;100022.03;10327976;28;20586;-79
2022/07/30 12:21:26;;;;;;;9.15;2.45;;;;;;;27.86;26.88;100028.56;10322184;28;20089;-79
2022/07/30 12:26:30;;;;;;;5.57;2.30;;;;;;;28.05;26.86;100022.44;10327082;28;20046;-78
2022/07/30 12:31:32;;;;;;;7.82;2.13;;;;;;;28.18;26.80;100017.09;10328724;28;20054;-78
2022/07/30 12:36:39;;;;;;;5.32;2.10;;;;;;;28.45;26.05;100016.16;10346097;28;20060;-78
2022/07/30 12:41:43;;;;;;;5.18;2.50;;;;;;;28.61;26.33;100029.22;10328798;28;20054;-78
2022/07/30 12:46:45;;;;;;;5.03;2.47;;;;;;;28.27;26.32;100015.88;10342601;28;20234;-78
2022/07/30 12:51:52;;;;;;;6.82;2.42;;;;;;;28.42;25.50;100023.81;10327219;28;20769;-79
2022/07/30 12:57:04;;;;;;;4.82;2.30;;;;;;;28.48;26.13;100013.06;10343493;28;20065;-78
2022/07/30 13:02:06;;;;;;;4.93;2.17;;;;;;;28.34;26.21;100014.06;10329053;28;20058;-78
2022/07/30 13:07:10;;;;;;;5.88;2.03;;;;;;;28.12;25.15;100018.75;10326459;28;20504;-78
2022/07/30 13:12:12;;;;;;;4.63;1.80;;;;;;;28.48;24.17;100018.44;10329566;28;20112;-78
2022/07/30 13:17:14;;;;;;;4.60;1.65;;;;;;;28.90;23.03;100011.88;10344956;28;20494;-78
2022/07/30 13:22:16;;;;;;;4.28;1.75;;;;;;;28.92;22.94;99999.03;10332542;28;21113;-78
2022/07/30 13:27:18;;;;;;;5.07;1.90;;;;;;;28.80;22.48;100004.19;10332469;28;20074;-78
2022/07/30 13:32:19;;;;;;;6.65;1.98;;;;;;;28.52;22.51;100002.72;10336163;28;20061;-78
2022/07/30 13:37:21;;;;;;;7.03;2.00;;;;;;;28.49;21.91;100003.13;10337473;28;20058;-78
2022/07/30 13:42:36;;;;;;;7.28;2.10;;;;;;;28.79;22.37;99997.13;10340125;28;20066;-78
2022/07/30 13:47:38;;;;;;;6.18;2.13;;;;;;;28.45;23.06;100002.69;10334951;28;20684;-78
2022/07/30 13:52:50;;;;;;;7.18;2.20;;;;;;;28.70;21.31;100001.06;10350642;28;20113;-79
2022/07/30 13:57:56;;;;;;;3.60;1.88;;;;;;;28.91;20.90;99990.09;10353256;28;20085;-79
2022/07/30 14:03:00;;;;;;;3.53;1.70;;;;;;;29.16;21.08;99990.28;10335947;28;20777;-79
2022/07/30 14:08:04;;;;;;;4.88;2.10;;;;;;;29.39;20.42;99977.22;10349969;28;20105;-79
2022/07/30 14:13:21;;;;;;;3.97;1.73;;;;;;;29.55;20.21;99981.28;10335367;28;20053;-80
2022/07/30 14:18:24;;;;;;;4.45;1.95;;;;;;;29.88;19.76;99980.13;10349392;28;20543;-80
2022/07/30 14:23:32;;;;;;;3.80;1.88;;;;;;;29.64;20.93;99977.34;10329634;28;20058;-80
2022/07/30 14:28:36;;;;;;;3.90;1.60;;;;;;;29.81;18.49;99978.50;10333909;28;20058;-80
2022/07/30 14:33:39;;;;;;;3.42;1.80;;;;;;;29.58;19.68;99973.59;10332938;28;20050;-80
2022/07/30 14:38:44;;;;;;;5.72;1.90;;;;;;;29.21;20.99;99965.41;10349895;28;20105;-80
2022/07/30 14:43:49;;;;;;;4.97;1.98;;;;;;;28.82;22.69;99969.81;10348230;28;20050;-80
2022/07/30 14:48:51;;;;;;;6.88;2.42;;;;;;;28.48;23.03;99971.88;10350765;28;20160;-80
2022/07/30 14:53:53;;;;;;;5.30;2.00;;;;;;;28.43;22.73;99968.97;10334846;28;20056;-80
2022/07/30 14:58:58;;;;;;;8.65;2.13;;;;;;;28.26;23.17;99969.31;10335564;28;20058;-80
2022/07/30 15:04:00;;;;;;;7.75;2.00;;;;;;;28.08;23.98;99979.00;10348623;28;20105;-80
2022/07/30 15:09:02;;;;;;;4.93;2.30;;;;;;;28.25;23.63;99996.44;10333566;28;20093;-80
2022/07/30 15:14:05;;;;;;;4.53;2.05;;;;;;;28.36;23.69;99989.66;10347697;28;20054;-80
2022/07/30 15:19:10;;;;;;;6.03;1.98;;;;;;;28.37;22.47;99989.44;10334586;28;20093;-80
2022/07/30 15:24:12;;;;;;;4.82;1.92;;;;;;;28.33;21.12;99980.13;10348897;28;20057;-79
2022/07/30 15:29:14;;;;;;;5.55;1.83;;;;;;;28.60;21.66;99979.13;10329229;28;20082;-80
2022/07/30 15:34:20;;;;;;;10.20;2.22;;;;;;;28.44;20.43;99992.97;10348490;28;20078;-80
2022/07/30 15:39:21;;;;;;;5.32;1.98;;;;;;;28.42;21.38;99997.72;10329279;28;20135;-80
2022/07/30 15:44:26;;;;;;;3.78;1.90;;;;;;;28.41;21.00;99998.75;10332606;28;20061;-80
2022/07/30 15:49:29;;;;;;;5.82;2.10;;;;;;;28.39;21.71;99992.75;10330494;28;20265;-79
2022/07/30 15:54:33;;;;;;;6.20;2.17;;;;;;;28.52;21.54;100000.88;10343455;28;20053;-80
2022/07/30 15:59:36;;;;;;;6.30;2.55;;;;;;;28.39;22.32;100003.53;10348158;28;20487;-80
2022/07/30 16:04:39;;;;;;;5.18;2.30;;;;;;;28.06;22.50;100000.72;10342420;28;20570;-80
2022/07/30 16:09:41;;;;;;;9.32;2.78;;;;;;;27.96;23.00;99992.22;10326688;28;20054;-80
2022/07/30 16:14:45;;;;;;;5.20;2.25;;;;;;;27.98;23.19;99983.94;10347112;28;20464;-80
2022/07/30 16:19:47;;;;;;;8.88;2.58;;;;;;;28.08;23.99;99985.22;10345002;28;20057;-80
2022/07/30 16:24:50;;;;;;;5.25;2.50;;;;;;;27.78;23.98;99980.38;10326939;28;20050;-79
2022/07/30 16:29:55;;;;;;;6.93;2.47;;;;;;;27.60;24.37;99974.69;10343275;28;20440;-79
2022/07/30 16:34:59;;;;;;;5.05;2.10;;;;;;;27.60;24.16;99974.69;10331782;28;20072;-80
2022/07/30 16:40:17;;;;;;;5.80;2.22;;;;;;;27.62;24.91;99980.69;10329298;28;20054;-79
2022/07/30 16:45:20;;;;;;;4.82;2.20;;;;;;;27.61;24.46;99973.63;10347160;28;20089;-79
2022/07/30 16:50:21;;;;;;;5.53;2.58;;;;;;;27.55;24.47;99977.97;10327435;28;20054;-79
2022/07/30 16:55:23;;;;;;;8.55;2.55;;;;;;;27.40;26.29;99988.03;10347882;28;20055;-79
2022/07/30 17:00:25;;;;;;;5.40;2.20;;;;;;;27.29;25.91;99984.03;10330133;28;20065;-78
2022/07/30 17:05:27;;;;;;;6.20;2.50;;;;;;;27.38;26.05;99990.09;10335093;28;20054;-78
2022/07/30 17:10:29;;;;;;;4.85;2.20;;;;;;;27.27;26.01;99990.63;10337122;28;20077;-78
2022/07/30 17:15:31;;;;;;;6.40;2.38;;;;;;;27.10;26.21;100000.81;10339713;28;20104;-80
2022/07/30 17:20:34;;;;;;;5.68;2.40;;;;;;;27.06;26.41;99994.16;10340066;28;20046;-80
2022/07/30 17:25:35;;;;;;;5.45;2.33;;;;;;;26.83;26.45;99990.91;10356542;28;20452;-80
2022/07/30 17:31:05;;;;;;;5.90;2.42;;;;;;;26.65;26.78;99999.44;10339459;28;20057;-80
2022/07/30 17:36:07;;;;;;;;;;;;;;;26.19;27.69;100013.38;10348375;28;20050;-80
2022/07/30 17:41:09;;;;;;;5.85;2.25;;;;;;;26.40;26.81;100008.03;10331360;28;20023;-80
2022/07/30 17:46:14;;;;;;;5.53;2.30;;;;;;;26.28;27.32;100012.25;10350921;28;20042;-79
2022/07/30 17:51:16;;;;;;;4.05;1.90;;;;;;;26.18;27.32;100009.84;10339151;28;20416;-79
2022/07/30 17:56:18;;;;;;;5.88;2.13;;;;;;;26.24;27.54;100008.28;10343343;28;20537;-79
2022/07/30 18:01:27;;;;;;;4.88;1.90;;;;;;;26.31;27.84;100009.16;10332675;28;20069;-79
2022/07/30 18:06:29;;;;;;;6.03;2.22;;;;;;;26.19;27.45;100021.41;10334967;28;20077;-79
2022/07/30 18:11:31;;;;;;;5.38;2.13;;;;;;;26.01;27.67;100021.00;10332574;28;20495;-79
2022/07/30 18:16:33;;;;;;;4.90;2.30;;;;;;;25.89;28.12;100017.97;10349432;28;20065;-79
2022/07/30 18:21:35;;;;;;;5.60;2.05;;;;;;;25.85;27.90;100020.16;10334653;28;20050;-78
2022/07/30 18:26:39;;;;;;;5.28;2.30;;;;;;;25.80;28.45;100036.00;10336789;28;20136;-78
2022/07/30 18:31:41;;;;;;;4.70;2.10;;;;;;;25.70;28.82;100038.13;10336340;28;20133;-78
2022/07/30 18:36:43;;;;;;;5.53;2.28;;;;;;;25.52;29.16;100048.38;10335204;28;20529;-78
2022/07/30 18:41:44;;;;;;;34.25;10.88;;;;;;;25.35;29.49;100046.88;10334381;28;20562;-79
2022/07/30 18:46:46;;;;;;;28.98;9.35;;;;;;;25.22;29.67;100045.84;10335657;28;20054;-79
2022/07/30 18:51:48;;;;;;;7.18;2.15;;;;;;;25.04;29.62;100049.69;10335590;28;20975;-78
2022/07/30 18:56:50;;;;;;;15.75;6.03;;;;;;;24.83;30.12;100051.38;10336541;28;20533;-78
2022/07/30 19:01:52;;;;;;;21.52;8.15;;;;;;;24.63;30.57;100058.19;10336334;28;20081;-78
2022/07/30 19:06:54;;;;;;;14.60;5.30;;;;;;;24.48;30.68;100049.28;10336215;28;20046;-79
2022/07/30 19:11:56;;;;;;;12.25;5.75;;;;;;;24.37;31.34;100052.38;10340226;28;20062;-78
2022/07/30 19:16:57;;;;;;;6.28;2.00;;;;;;;24.23;31.23;100062.81;10333870;28;20058;-77
2022/07/30 19:22:00;;;;;;;7.63;2.80;;;;;;;24.07;31.46;100067.41;10336428;28;20500;-77
2022/07/30 19:27:03;;;;;;;5.18;1.90;;;;;;;23.91;31.59;100078.97;10331467;28;20432;-77
2022/07/30 19:32:05;;;;;;;5.15;1.83;;;;;;;23.72;32.09;100084.69;10335650;28;20512;-77
2022/07/30 19:37:07;;;;;;;5.18;2.10;;;;;;;23.68;32.20;100095.91;10333705;28;20108;-77
2022/07/30 19:42:09;;;;;;;5.43;1.80;;;;;;;23.59;32.40;100100.44;10331933;28;20054;-77
2022/07/30 19:47:11;;;;;;;9.05;2.42;;;;;;;23.43;33.29;100106.63;10331348;28;20108;-77
2022/07/30 19:52:16;;;;;;;4.75;2.00;;;;;;;23.33;33.32;100107.81;10346547;28;20085;-77
2022/07/30 19:57:26;;;;;;;5.28;2.30;;;;;;;23.30;33.64;100111.66;10332040;28;20049;-77
2022/07/30 20:02:48;;;;;;;11.45;2.10;;;;;;;23.22;34.08;100114.31;10335020;28;20065;-77
2022/07/30 20:07:49;;;;;;;6.72;2.28;;;;;;;23.12;34.29;100120.81;10331149;28;20053;-77
2022/07/30 20:12:52;;;;;;;5.57;2.10;;;;;;;23.13;33.92;100120.66;10328103;28;20054;-77
2022/07/30 20:17:57;;;;;;;4.80;1.80;;;;;;;23.03;34.25;100113.81;10332927;28;20058;-77
2022/07/30 20:22:59;;;;;;;6.70;1.95;;;;;;;22.91;34.40;100120.47;10343297;28;20568;-77
2022/07/30 20:28:01;;;;;;;6.22;2.00;;;;;;;22.85;34.61;100115.81;10327509;28;20077;-76
2022/07/30 20:33:03;;;;;;;4.10;1.98;;;;;;;23.00;34.50;100123.00;10329717;28;20054;-76
2022/07/30 20:38:32;;;;;;;5.07;1.90;;;;;;;22.90;34.80;100126.81;10331919;28;20050;-77
2022/07/30 20:43:38;;;;;;;4.28;2.10;;;;;;;22.82;35.02;100137.50;10344151;28;20064;-77
2022/07/30 20:48:55;;;;;;;4.55;1.83;;;;;;;22.79;35.64;100143.13;10333718;28;20050;-77
2022/07/30 20:53:57;;;;;;;7.28;2.30;;;;;;;22.63;36.03;100150.09;10334725;28;20058;-77
2022/07/30 20:58:59;;;;;;;4.38;1.80;;;;;;;22.46;36.25;100148.38;10331333;28;20065;-77
2022/07/30 21:04:01;;;;;;;3.97;1.90;;;;;;;22.39;36.02;100152.66;10329266;28;20058;-77
2022/07/30 21:09:03;;;;;;;5.20;2.17;;;;;;;22.35;36.15;100148.66;10331857;28;20574;-77
2022/07/30 21:14:09;;;;;;;5.03;2.40;;;;;;;22.26;36.55;100141.66;10330516;28;20094;-77
2022/07/30 21:19:15;;;;;;;6.22;2.17;;;;;;;22.24;36.74;100140.97;10345171;28;20050;-77
2022/07/30 21:24:20;;;;;;;6.50;2.08;;;;;;;22.28;36.55;100147.66;10326935;28;20603;-77
2022/07/30 21:29:22;;;;;;;4.15;2.00;;;;;;;22.21;36.57;100149.28;10347881;28;20089;-77
2022/07/30 21:34:25;;;;;;;3.58;2.15;;;;;;;21.95;37.44;100147.63;10330263;28;20049;-77
2022/07/30 21:39:30;;;;;;;4.18;2.08;;;;;;;21.90;37.51;100153.44;10329461;28;20109;-77
2022/07/30 21:44:40;;;;;;;4.40;2.13;;;;;;;22.00;37.61;100143.50;10330880;28;20054;-77
2022/07/30 21:49:42;;;;;;;3.60;2.10;;;;;;;22.06;37.49;100150.06;10326682;28;20046;-77
2022/07/30 21:54:48;;;;;;;3.63;2.00;;;;;;;21.83;37.83;100147.06;10338392;28;20050;-77
2022/07/30 21:59:51;;;;;;;4.00;2.00;;;;;;;21.94;37.93;100144.16;10338853;28;20078;-76
2022/07/30 22:04:55;;;;;;;6.45;2.30;;;;;;;22.01;38.14;100144.31;10336139;28;20054;-77
2022/07/30 22:09:59;;;;;;;6.10;2.30;;;;;;;21.95;38.43;100147.63;10337691;28;20062;-76
2022/07/30 22:15:01;;;;;;;4.57;2.20;;;;;;;;;;10334941;28;20051;-76
2022/07/30 22:20:04;;;;;;;5.20;2.40;;;;;;;21.32;39.73;100147.91;10352563;28;20057;-77
2022/07/30 22:25:11;;;;;;;5.00;2.20;;;;;;;21.58;39.29;100148.75;10336838;28;20054;-76
2022/07/30 22:30:14;;;;;;;7.03;2.17;;;;;;;21.58;39.63;100151.41;10334610;28;20141;-76
2022/07/30 22:35:16;;;;;;;6.10;2.42;;;;;;;21.50;39.65;100147.84;10336786;28;20046;-76
2022/07/30 22:40:35;;;;;;;6.30;2.40;;;;;;;21.50;39.93;100145.19;10337927;28;20127;-76
2022/07/30 22:45:37;;;;;;;4.32;2.13;;;;;;;21.43;40.19;100144.16;10334251;28;20049;-76
2022/07/30 22:50:49;;;;;;;5.00;2.15;;;;;;;21.39;40.35;100143.66;10336517;28;20050;-76
2022/07/30 22:55:54;;;;;;;4.85;2.20;;;;;;;21.41;40.64;100138.16;10335161;28;20047;-76
2022/07/30 23:00:56;;;;;;;3.72;2.20;;;;;;;21.38;40.64;100144.63;10350827;28;20401;-76
2022/07/30 23:05:58;;;;;;;4.80;2.40;;;;;;;21.38;40.80;100143.78;10332496;28;20451;-76
2022/07/30 23:11:01;;;;;;;4.30;2.30;;;;;;;21.38;40.81;100144.63;10350572;28;20070;-76
2022/07/30 23:16:04;;;;;;;5.43;2.00;;;;;;;21.46;40.48;100136.69;10349240;28;20554;-76
2022/07/30 23:21:06;;;;;;;9.10;2.53;;;;;;;21.43;40.56;100131.69;10335578;28;20054;-76
2022/07/30 23:26:07;;;;;;;3.88;2.08;;;;;;;21.42;40.71;100135.34;10348330;28;20046;-76